createdAt,value
2019-03-03T00:00:00.482Z,86.42
2019-03-03T00:01:00.468Z,85.66
2019-03-03T00:02:00.456Z,85.66
2019-03-03T00:03:00.472Z,86.27
2019-03-03T00:04:00.434Z,87.65
2019-03-03T00:05:00.424Z,86.42
2019-03-03T00:06:00.416Z,87.24
2019-03-03T00:07:00.403Z,87.13
2019-03-03T00:08:00.415Z,87.13
2019-03-03T00:09:00.384Z,87.04
2019-03-03T00:10:00.373Z,87.34
2019-03-03T00:11:00.361Z,86.93
2019-03-03T00:12:00.354Z,88.20
2019-03-03T00:13:00.362Z,88.00
2019-03-03T00:14:00.330Z,88.06
2019-03-03T00:15:00.386Z,87.04
2019-03-03T00:16:00.310Z,87.24
2019-03-03T00:17:00.300Z,87.13
2019-03-03T00:18:00.310Z,86.93
2019-03-03T00:19:00.271Z,86.48
2019-03-03T00:20:00.358Z,86.27
2019-03-03T00:21:00.256Z,86.07
2019-03-03T00:22:00.245Z,86.68
2019-03-03T00:23:00.257Z,86.83
2019-03-03T00:24:00.219Z,87.04
2019-03-03T00:25:00.338Z,86.21
2019-03-03T00:26:00.203Z,86.83
2019-03-03T00:27:00.188Z,87.20
2019-03-03T00:28:00.203Z,87.13
2019-03-03T00:29:00.163Z,87.24
2019-03-03T00:30:00.255Z,87.65
2019-03-03T00:31:00.142Z,87.65
2019-03-03T00:32:00.131Z,86.83
2019-03-03T00:33:00.149Z,87.20
2019-03-03T00:34:00.114Z,86.83
2019-03-03T00:35:00.174Z,86.27
2019-03-03T00:36:00.093Z,87.30
2019-03-03T00:37:00.083Z,86.58
2019-03-03T00:38:00.113Z,86.07
2019-03-03T00:39:00.059Z,87.20
2019-03-03T00:40:00.050Z,86.58
2019-03-03T00:41:00.034Z,87.61
2019-03-03T00:42:00.023Z,86.27
2019-03-03T00:43:00.015Z,85.97
2019-03-03T00:44:00.035Z,86.33
2019-03-03T00:44:59.990Z,85.97
2019-03-03T00:45:59.979Z,85.66
2019-03-03T00:46:59.974Z,85.55
2019-03-03T00:47:59.960Z,85.97
2019-03-03T00:48:59.980Z,86.17
2019-03-03T00:49:59.950Z,85.82
2019-03-03T00:50:59.965Z,85.52
2019-03-03T00:51:59.914Z,85.86
2019-03-03T00:52:59.908Z,86.27
2019-03-03T00:53:59.980Z,86.07
2019-03-03T00:54:59.882Z,86.17
2019-03-03T00:55:59.871Z,85.86
2019-03-03T00:56:59.863Z,86.17
2019-03-03T00:57:59.852Z,85.86
2019-03-03T00:58:59.862Z,85.97
2019-03-03T00:59:59.827Z,85.55
2019-03-03T01:00:59.822Z,85.66
2019-03-03T01:01:59.813Z,86.17
2019-03-03T01:02:59.803Z,86.32
2019-03-03T01:03:59.813Z,85.86
2019-03-03T01:04:59.775Z,85.97
2019-03-03T01:05:59.768Z,85.97
2019-03-03T01:06:59.758Z,85.97
2019-03-03T01:07:59.747Z,85.97
2019-03-03T01:08:59.775Z,86.17
2019-03-03T01:09:59.724Z,85.76
2019-03-03T01:10:59.710Z,85.97
2019-03-03T01:11:59.700Z,85.86
2019-03-03T01:12:59.703Z,85.55
2019-03-03T01:13:59.707Z,85.14
2019-03-03T01:14:59.670Z,85.04
2019-03-03T01:15:59.663Z,85.46
2019-03-03T01:16:59.648Z,85.25
2019-03-03T01:17:59.639Z,85.04
2019-03-03T01:18:59.661Z,85.55
2019-03-03T01:19:59.622Z,85.86
2019-03-03T01:20:59.607Z,86.07
2019-03-03T01:21:59.600Z,85.46
2019-03-03T01:22:59.594Z,84.84
2019-03-03T01:23:59.603Z,84.74
2019-03-03T01:24:59.563Z,85.66
2019-03-03T01:25:59.553Z,85.14
2019-03-03T01:26:59.546Z,85.04
2019-03-03T01:27:59.531Z,85.04
2019-03-03T01:28:59.549Z,85.25
2019-03-03T01:29:59.508Z,84.53
2019-03-03T01:30:59.502Z,84.01
2019-03-03T01:31:59.494Z,83.50
2019-03-03T01:32:59.477Z,83.61
2019-03-03T01:33:59.501Z,82.95
2019-03-03T01:34:59.457Z,83.70
2019-03-03T01:35:59.447Z,83.26
2019-03-03T01:36:59.435Z,83.19
2019-03-03T01:37:59.434Z,83.61
2019-03-03T01:38:59.441Z,82.57
2019-03-03T01:39:59.402Z,83.50
2019-03-03T01:40:59.398Z,82.57
2019-03-03T01:41:59.429Z,82.54
2019-03-03T01:42:59.371Z,82.23
2019-03-03T01:43:59.381Z,82.13
2019-03-03T01:44:59.348Z,82.13
2019-03-03T01:45:59.349Z,82.37
2019-03-03T01:46:59.327Z,82.27
2019-03-03T01:47:59.321Z,82.47
2019-03-03T01:48:59.340Z,83.19
2019-03-03T01:49:59.297Z,82.33
2019-03-03T01:50:59.286Z,83.09
2019-03-03T01:51:59.274Z,83.61
2019-03-03T01:52:59.270Z,82.17
2019-03-03T01:53:59.252Z,82.57
2019-03-03T01:54:59.267Z,82.27
2019-03-03T01:55:59.247Z,82.27
2019-03-03T01:56:59.221Z,82.27
2019-03-03T01:57:59.211Z,81.14
2019-03-03T01:58:59.220Z,81.71
2019-03-03T01:59:59.219Z,81.20
2019-03-03T02:00:59.178Z,81.20
2019-03-03T02:01:59.174Z,81.96
2019-03-03T02:02:59.155Z,82.47
2019-03-03T02:03:59.142Z,81.96
2019-03-03T02:04:59.159Z,82.71
2019-03-03T02:05:59.128Z,82.57
2019-03-03T02:06:59.112Z,82.20
2019-03-03T02:07:59.111Z,82.17
2019-03-03T02:08:59.091Z,82.57
2019-03-03T02:09:59.126Z,82.17
2019-03-03T02:10:59.072Z,82.27
2019-03-03T02:11:59.072Z,82.06
2019-03-03T02:12:59.057Z,81.55
2019-03-03T02:13:59.041Z,82.47
2019-03-03T02:14:59.051Z,82.57
2019-03-03T02:15:59.032Z,82.06
2019-03-03T02:16:59.011Z,82.37
2019-03-03T02:17:59.001Z,81.14
2019-03-03T02:18:58.998Z,81.14
2019-03-03T02:19:59.014Z,80.83
2019-03-03T02:20:58.967Z,81.04
2019-03-03T02:21:58.974Z,80.83
2019-03-03T02:22:58.943Z,80.83
2019-03-03T02:23:58.942Z,81.14
2019-03-03T02:24:58.966Z,81.96
2019-03-03T02:25:58.914Z,81.96
2019-03-03T02:26:58.899Z,82.06
2019-03-03T02:27:58.890Z,83.19
2019-03-03T02:28:58.884Z,82.06
2019-03-03T02:29:58.876Z,80.93
2019-03-03T02:30:58.891Z,81.45
2019-03-03T02:31:58.848Z,80.93
2019-03-03T02:32:58.839Z,81.34
2019-03-03T02:33:58.832Z,81.04
2019-03-03T02:34:58.818Z,81.10
2019-03-03T02:35:58.835Z,80.93
2019-03-03T02:36:58.790Z,80.52
2019-03-03T02:37:58.784Z,80.42
2019-03-03T02:38:58.776Z,80.93
2019-03-03T02:39:58.762Z,82.27
2019-03-03T02:40:58.780Z,81.04
2019-03-03T02:41:58.754Z,80.42
2019-03-03T02:42:58.727Z,81.14
2019-03-03T02:43:58.720Z,80.63
2019-03-03T02:44:58.715Z,80.63
2019-03-03T02:45:58.733Z,81.76
2019-03-03T02:46:58.685Z,80.73
2019-03-03T02:47:58.681Z,80.32
2019-03-03T02:48:58.668Z,80.11
2019-03-03T02:49:58.654Z,80.21
2019-03-03T02:50:58.668Z,80.01
2019-03-03T02:51:58.642Z,80.01
2019-03-03T02:52:58.621Z,80.32
2019-03-03T02:53:58.608Z,79.91
2019-03-03T02:54:58.599Z,79.97
2019-03-03T02:55:58.611Z,80.21
2019-03-03T02:56:58.578Z,79.60
2019-03-03T02:57:58.573Z,80.21
2019-03-03T02:58:58.560Z,80.63
2019-03-03T02:59:58.542Z,80.42
2019-03-03T03:00:58.561Z,80.52
2019-03-03T03:01:58.518Z,80.52
2019-03-03T03:02:58.517Z,80.83
2019-03-03T03:03:58.507Z,79.60
2019-03-03T03:04:58.494Z,80.32
2019-03-03T03:05:58.502Z,80.01
2019-03-03T03:06:58.466Z,80.32
2019-03-03T03:07:58.459Z,80.01
2019-03-03T03:08:58.443Z,79.60
2019-03-03T03:09:58.431Z,79.91
2019-03-03T03:10:58.461Z,78.78
2019-03-03T03:11:58.411Z,80.32
2019-03-03T03:12:58.429Z,80.77
2019-03-03T03:13:58.396Z,80.32
2019-03-03T03:14:58.382Z,80.63
2019-03-03T03:15:58.391Z,80.32
2019-03-03T03:16:58.365Z,80.32
2019-03-03T03:17:58.347Z,80.32
2019-03-03T03:18:58.336Z,79.91
2019-03-03T03:19:58.331Z,80.01
2019-03-03T03:20:58.345Z,79.39
2019-03-03T03:21:58.309Z,79.49
2019-03-03T03:22:58.292Z,80.11
2019-03-03T03:23:58.282Z,78.78
2019-03-03T03:24:58.275Z,80.01
2019-03-03T03:25:58.298Z,80.01
2019-03-03T03:26:58.248Z,79.49
2019-03-03T03:27:58.242Z,79.49
2019-03-03T03:28:58.228Z,79.80
2019-03-03T03:29:58.223Z,79.19
2019-03-03T03:30:58.232Z,80.01
2019-03-03T03:31:58.196Z,80.11
2019-03-03T03:32:58.199Z,80.11
2019-03-03T03:33:58.178Z,80.01
2019-03-03T03:34:58.167Z,79.19
2019-03-03T03:35:58.180Z,78.98
2019-03-03T03:36:58.140Z,78.57
2019-03-03T03:37:58.162Z,79.29
2019-03-03T03:38:58.126Z,79.19
2019-03-03T03:39:58.107Z,79.60
2019-03-03T03:40:58.121Z,79.70
2019-03-03T03:41:58.097Z,79.60
2019-03-03T03:42:58.083Z,79.53
2019-03-03T03:43:58.066Z,79.60
2019-03-03T03:44:58.056Z,79.80
2019-03-03T03:45:58.076Z,79.91
2019-03-03T03:46:58.039Z,80.11
2019-03-03T03:47:58.022Z,79.29
2019-03-03T03:48:58.011Z,80.52
2019-03-03T03:49:58.004Z,80.21
2019-03-03T03:50:58.024Z,78.78
2019-03-03T03:51:57.980Z,79.19
2019-03-03T03:52:57.981Z,79.39
2019-03-03T03:53:57.958Z,78.67
2019-03-03T03:54:57.954Z,78.57
2019-03-03T03:55:57.971Z,79.05
2019-03-03T03:56:57.925Z,78.57
2019-03-03T03:57:57.915Z,79.25
2019-03-03T03:58:57.906Z,78.98
2019-03-03T03:59:57.887Z,79.29
2019-03-03T04:00:57.987Z,79.91
2019-03-03T04:01:57.868Z,79.49
2019-03-03T04:02:57.857Z,79.60
2019-03-03T04:03:57.857Z,80.97
2019-03-03T04:04:57.839Z,80.46
2019-03-03T04:05:57.825Z,81.28
2019-03-03T04:06:57.842Z,82.24
2019-03-03T04:07:57.801Z,81.07
2019-03-03T04:08:57.793Z,80.35
2019-03-03T04:09:57.779Z,80.32
2019-03-03T04:10:57.773Z,80.73
2019-03-03T04:11:57.782Z,80.97
2019-03-03T04:12:57.753Z,80.73
2019-03-03T04:13:57.753Z,80.97
2019-03-03T04:14:57.727Z,80.73
2019-03-03T04:15:57.720Z,80.63
2019-03-03T04:16:57.731Z,80.25
2019-03-03T04:17:57.701Z,81.18
2019-03-03T04:18:57.683Z,80.35
2019-03-03T04:19:57.673Z,80.56
2019-03-03T04:20:57.662Z,80.87
2019-03-03T04:21:57.680Z,80.97
2019-03-03T04:22:57.641Z,81.18
2019-03-03T04:23:57.632Z,82.10
2019-03-03T04:24:57.621Z,80.56
2019-03-03T04:25:57.602Z,80.66
2019-03-03T04:26:57.628Z,80.52
2019-03-03T04:27:57.586Z,80.73
2019-03-03T04:28:57.572Z,80.42
2019-03-03T04:29:57.564Z,80.32
2019-03-03T04:30:57.557Z,80.63
2019-03-03T04:31:57.567Z,80.35
2019-03-03T04:32:57.524Z,80.97
2019-03-03T04:33:57.520Z,80.83
2019-03-03T04:34:57.520Z,81.38
2019-03-03T04:35:57.500Z,82.20
2019-03-03T04:36:57.512Z,82.04
2019-03-03T04:37:57.478Z,81.69
2019-03-03T04:38:57.463Z,82.10
2019-03-03T04:39:57.453Z,81.28
2019-03-03T04:40:57.441Z,80.97
2019-03-03T04:41:57.456Z,81.18
2019-03-03T04:42:57.419Z,81.38
2019-03-03T04:43:57.406Z,80.97
2019-03-03T04:44:57.398Z,81.24
2019-03-03T04:45:57.389Z,82.20
2019-03-03T04:46:57.405Z,81.69
2019-03-03T04:47:57.364Z,82.10
2019-03-03T04:48:57.358Z,82.10
2019-03-03T04:49:57.343Z,82.10
2019-03-03T04:50:57.330Z,81.90
2019-03-03T04:51:57.347Z,82.20
2019-03-03T04:52:57.313Z,82.20
2019-03-03T04:53:57.299Z,82.17
2019-03-03T04:54:57.289Z,81.65
2019-03-03T04:55:57.276Z,82.41
2019-03-03T04:56:57.291Z,82.20
2019-03-03T04:57:57.260Z,82.20
2019-03-03T04:58:57.248Z,81.14
2019-03-03T04:59:57.236Z,81.65
2019-03-03T05:00:57.227Z,82.17
2019-03-03T05:01:57.238Z,82.06
2019-03-03T05:02:57.202Z,82.10
2019-03-03T05:03:57.190Z,81.96
2019-03-03T05:04:57.181Z,81.04
2019-03-03T05:05:57.168Z,80.73
2019-03-03T05:06:57.182Z,80.63
2019-03-03T05:07:57.147Z,80.42
2019-03-03T05:08:57.138Z,80.21
2019-03-03T05:09:57.127Z,80.63
2019-03-03T05:10:57.119Z,80.63
2019-03-03T05:11:57.131Z,80.73
2019-03-03T05:12:57.094Z,80.83
2019-03-03T05:13:57.083Z,80.83
2019-03-03T05:14:57.074Z,80.52
2019-03-03T05:15:57.063Z,80.32
2019-03-03T05:16:57.077Z,80.21
2019-03-03T05:17:57.040Z,80.38
2019-03-03T05:18:57.028Z,79.97
2019-03-03T05:19:57.015Z,80.49
2019-03-03T05:20:57.005Z,80.58
2019-03-03T05:21:57.022Z,80.49
2019-03-03T05:22:56.986Z,80.49
2019-03-03T05:23:56.974Z,80.58
2019-03-03T05:24:56.965Z,82.27
2019-03-03T05:25:56.953Z,81.96
2019-03-03T05:26:56.971Z,81.24
2019-03-03T05:27:56.932Z,81.45
2019-03-03T05:28:56.918Z,81.24
2019-03-03T05:29:56.914Z,81.24
2019-03-03T05:30:56.898Z,81.41
2019-03-03T05:31:56.920Z,81.82
2019-03-03T05:32:56.880Z,82.27
2019-03-03T05:33:56.864Z,82.27
2019-03-03T05:34:56.853Z,82.27
2019-03-03T05:35:56.844Z,82.17
2019-03-03T05:36:56.837Z,82.17
2019-03-03T05:37:56.847Z,82.06
2019-03-03T05:38:56.808Z,81.65
2019-03-03T05:39:56.800Z,82.27
2019-03-03T05:40:56.786Z,83.50
2019-03-03T05:41:56.775Z,82.99
2019-03-03T05:42:56.791Z,83.19
2019-03-03T05:43:56.756Z,83.50
2019-03-03T05:44:56.746Z,83.50
2019-03-03T05:45:56.737Z,82.78
2019-03-03T05:46:56.734Z,83.81
2019-03-03T05:47:56.734Z,84.77
2019-03-03T05:48:56.704Z,84.42
2019-03-03T05:49:56.730Z,84.53
2019-03-03T05:50:56.682Z,84.67
2019-03-03T05:51:56.667Z,84.42
2019-03-03T05:52:56.685Z,84.63
2019-03-03T05:53:56.653Z,85.66
2019-03-03T05:54:56.640Z,84.94
2019-03-03T05:55:56.623Z,84.94
2019-03-03T05:56:56.613Z,85.18
2019-03-03T05:57:56.631Z,84.22
2019-03-03T05:58:56.596Z,84.53
2019-03-03T05:59:56.581Z,84.12
2019-03-03T06:00:56.573Z,83.91
2019-03-03T06:01:56.561Z,84.01
2019-03-03T06:02:56.622Z,84.53
2019-03-03T06:03:56.534Z,84.74
2019-03-03T06:04:56.528Z,85.86
2019-03-03T06:05:56.515Z,85.97
2019-03-03T06:06:56.507Z,85.46
2019-03-03T06:07:56.518Z,86.11
2019-03-03T06:08:56.481Z,86.11
2019-03-03T06:09:56.461Z,85.90
2019-03-03T06:10:56.466Z,85.97
2019-03-03T06:11:56.453Z,86.38
2019-03-03T06:12:56.475Z,86.17
2019-03-03T06:13:56.433Z,87.20
2019-03-03T06:14:56.415Z,86.42
2019-03-03T06:15:56.404Z,86.21
2019-03-03T06:16:56.405Z,86.58
2019-03-03T06:17:56.384Z,86.07
2019-03-03T06:18:56.399Z,86.89
2019-03-03T06:19:56.360Z,86.27
2019-03-03T06:20:56.352Z,86.83
2019-03-03T06:21:56.342Z,86.21
2019-03-03T06:22:56.332Z,87.13
2019-03-03T06:23:56.344Z,86.48
2019-03-03T06:24:56.311Z,86.07
2019-03-03T06:25:56.298Z,85.97
2019-03-03T06:26:56.284Z,86.38
2019-03-03T06:27:56.276Z,86.27
2019-03-03T06:28:56.290Z,86.17
2019-03-03T06:29:56.263Z,86.27
2019-03-03T06:30:56.244Z,85.97
2019-03-03T06:31:56.233Z,86.79
2019-03-03T06:32:56.219Z,86.99
2019-03-03T06:33:56.244Z,87.20
2019-03-03T06:34:56.199Z,88.53
2019-03-03T06:35:56.188Z,87.20
2019-03-03T06:36:56.184Z,88.27
2019-03-03T06:37:56.166Z,88.47
2019-03-03T06:38:56.187Z,88.78
2019-03-03T06:39:56.155Z,88.12
2019-03-03T06:40:56.136Z,88.12
2019-03-03T06:41:56.122Z,87.40
2019-03-03T06:42:56.120Z,86.79
2019-03-03T06:43:56.123Z,86.48
2019-03-03T06:44:56.098Z,86.89
2019-03-03T06:45:56.084Z,85.76
2019-03-03T06:46:56.080Z,86.17
2019-03-03T06:47:56.066Z,86.07
2019-03-03T06:48:56.078Z,85.82
2019-03-03T06:49:56.047Z,85.52
2019-03-03T06:50:56.032Z,85.52
2019-03-03T06:51:56.028Z,85.52
2019-03-03T06:52:56.020Z,85.62
2019-03-03T06:53:56.024Z,86.24
2019-03-03T06:54:55.995Z,85.21
2019-03-03T06:55:55.980Z,85.52
2019-03-03T06:56:55.966Z,84.14
2019-03-03T06:57:55.963Z,84.45
2019-03-03T06:58:55.974Z,83.67
2019-03-03T06:59:55.944Z,84.25
2019-03-03T07:00:55.935Z,84.80
2019-03-03T07:01:55.915Z,83.83
2019-03-03T07:02:55.908Z,85.06
2019-03-03T07:03:55.945Z,84.76
2019-03-03T07:04:55.882Z,84.45
2019-03-03T07:05:55.871Z,84.96
2019-03-03T07:06:55.867Z,84.45
2019-03-03T07:07:55.853Z,83.63
2019-03-03T07:08:55.840Z,84.55
2019-03-03T07:09:55.859Z,84.34
2019-03-03T07:10:55.819Z,84.45
2019-03-03T07:11:55.810Z,85.58
2019-03-03T07:12:55.806Z,85.58
2019-03-03T07:13:55.787Z,85.06
2019-03-03T07:14:55.828Z,85.38
2019-03-03T07:15:55.782Z,85.27
2019-03-03T07:16:55.766Z,85.58
2019-03-03T07:17:55.750Z,85.58
2019-03-03T07:18:55.739Z,86.19
2019-03-03T07:19:55.756Z,87.46
2019-03-03T07:20:55.729Z,86.13
2019-03-03T07:21:55.711Z,86.03
2019-03-03T07:22:55.697Z,86.09
2019-03-03T07:23:55.690Z,86.09
2019-03-03T07:24:55.699Z,86.09
2019-03-03T07:25:55.663Z,86.95
2019-03-03T07:26:55.655Z,86.54
2019-03-03T07:27:55.641Z,85.93
2019-03-03T07:28:55.632Z,88.08
2019-03-03T07:29:55.669Z,87.02
2019-03-03T07:30:55.608Z,87.57
2019-03-03T07:31:55.600Z,87.46
2019-03-03T07:32:55.590Z,86.85
2019-03-03T07:33:55.579Z,87.84
2019-03-03T07:34:55.596Z,88.29
2019-03-03T07:35:55.557Z,87.26
2019-03-03T07:36:55.543Z,87.16
2019-03-03T07:37:55.540Z,87.16
2019-03-03T07:38:55.519Z,87.57
2019-03-03T07:39:55.542Z,87.22
2019-03-03T07:40:55.506Z,87.02
2019-03-03T07:41:55.494Z,86.91
2019-03-03T07:42:55.483Z,88.76
2019-03-03T07:43:55.472Z,86.91
2019-03-03T07:44:55.482Z,87.77
2019-03-03T07:45:55.451Z,87.32
2019-03-03T07:46:55.439Z,88.08
2019-03-03T07:47:55.436Z,88.90
2019-03-03T07:48:55.424Z,89.21
2019-03-03T07:49:55.431Z,88.18
2019-03-03T07:50:55.402Z,89.21
2019-03-03T07:51:55.388Z,90.03
2019-03-03T07:52:55.380Z,88.90
2019-03-03T07:53:55.362Z,89.72
2019-03-03T07:54:55.387Z,89.93
2019-03-03T07:55:55.344Z,89.72
2019-03-03T07:56:55.340Z,90.34
2019-03-03T07:57:55.327Z,90.34
2019-03-03T07:58:55.323Z,90.95
2019-03-03T07:59:55.333Z,90.14
2019-03-03T08:00:55.295Z,91.27
2019-03-03T08:01:55.285Z,91.16
2019-03-03T08:02:55.286Z,90.55
2019-03-03T08:03:55.263Z,92.04
2019-03-03T08:04:55.307Z,91.84
2019-03-03T08:05:55.260Z,92.08
2019-03-03T08:06:55.232Z,91.67
2019-03-03T08:07:55.225Z,92.08
2019-03-03T08:08:55.214Z,91.57
2019-03-03T08:09:55.199Z,91.16
2019-03-03T08:10:55.218Z,91.27
2019-03-03T08:11:55.180Z,91.99
2019-03-03T08:12:55.167Z,92.19
2019-03-03T08:13:55.162Z,91.57
2019-03-03T08:14:55.149Z,91.88
2019-03-03T08:15:55.161Z,92.08
2019-03-03T08:16:55.128Z,92.29
2019-03-03T08:17:55.115Z,91.78
2019-03-03T08:18:55.107Z,91.88
2019-03-03T08:19:55.099Z,91.78
2019-03-03T08:20:55.122Z,92.66
2019-03-03T08:21:55.079Z,92.50
2019-03-03T08:22:55.067Z,91.78
2019-03-03T08:23:55.051Z,91.99
2019-03-03T08:24:55.054Z,92.29
2019-03-03T08:25:55.058Z,92.60
2019-03-03T08:26:55.019Z,92.40
2019-03-03T08:27:55.012Z,92.40
2019-03-03T08:28:55.001Z,92.60
2019-03-03T08:29:54.988Z,92.40
2019-03-03T08:30:55.005Z,92.40
2019-03-03T08:31:54.993Z,92.40
2019-03-03T08:32:54.970Z,92.19
2019-03-03T08:33:54.950Z,92.25
2019-03-03T08:34:54.935Z,91.74
2019-03-03T08:35:54.954Z,92.35
2019-03-03T08:36:54.923Z,92.46
2019-03-03T08:37:54.907Z,92.14
2019-03-03T08:38:54.893Z,92.35
2019-03-03T08:39:54.889Z,92.04
2019-03-03T08:40:54.896Z,92.46
2019-03-03T08:41:54.859Z,92.97
2019-03-03T08:42:54.855Z,93.17
2019-03-03T08:43:54.840Z,93.27
2019-03-03T08:44:54.831Z,92.66
2019-03-03T08:45:54.844Z,93.27
2019-03-03T08:46:54.812Z,92.76
2019-03-03T08:47:54.800Z,93.48
2019-03-03T08:48:54.794Z,93.38
2019-03-03T08:49:54.779Z,93.27
2019-03-03T08:50:54.790Z,93.07
2019-03-03T08:51:54.756Z,93.27
2019-03-03T08:52:54.749Z,93.99
2019-03-03T08:53:54.739Z,93.17
2019-03-03T08:54:54.726Z,93.27
2019-03-03T08:55:54.746Z,93.27
2019-03-03T08:56:54.705Z,93.07
2019-03-03T08:57:54.693Z,93.27
2019-03-03T08:58:54.686Z,93.59
2019-03-03T08:59:54.672Z,93.27
2019-03-03T09:00:54.707Z,93.27
2019-03-03T09:01:54.651Z,93.27
2019-03-03T09:02:54.655Z,92.97
2019-03-03T09:03:54.637Z,92.66
2019-03-03T09:04:54.620Z,93.13
2019-03-03T09:05:54.609Z,93.23
2019-03-03T09:06:54.623Z,92.66
2019-03-03T09:07:54.588Z,92.25
2019-03-03T09:08:54.590Z,93.13
2019-03-03T09:09:54.569Z,93.64
2019-03-03T09:10:54.561Z,92.51
2019-03-03T09:11:54.573Z,92.86
2019-03-03T09:12:54.539Z,93.17
2019-03-03T09:13:54.527Z,94.10
2019-03-03T09:14:54.515Z,93.68
2019-03-03T09:15:54.509Z,93.64
2019-03-03T09:16:54.520Z,93.54
2019-03-03T09:17:54.486Z,93.54
2019-03-03T09:18:54.472Z,93.02
2019-03-03T09:19:54.458Z,93.23
2019-03-03T09:20:54.457Z,92.93
2019-03-03T09:21:54.462Z,94.05
2019-03-03T09:22:54.429Z,93.23
2019-03-03T09:23:54.419Z,93.02
2019-03-03T09:24:54.407Z,93.13
2019-03-03T09:25:54.394Z,93.13
2019-03-03T09:26:54.420Z,92.72
2019-03-03T09:27:54.375Z,93.02
2019-03-03T09:28:54.359Z,93.13
2019-03-03T09:29:54.351Z,92.72
2019-03-03T09:30:54.363Z,93.23
2019-03-03T09:31:54.338Z,92.93
2019-03-03T09:32:54.351Z,93.13
2019-03-03T09:33:54.307Z,93.02
2019-03-03T09:34:54.307Z,93.23
2019-03-03T09:35:54.287Z,93.64
2019-03-03T09:36:54.274Z,93.54
2019-03-03T09:37:54.292Z,93.95
2019-03-03T09:38:54.258Z,93.29
2019-03-03T09:39:54.243Z,93.23
2019-03-03T09:40:54.284Z,92.98
2019-03-03T09:41:54.226Z,93.54
2019-03-03T09:42:54.241Z,93.23
2019-03-03T09:43:54.198Z,93.23
2019-03-03T09:44:54.190Z,94.15
2019-03-03T09:45:54.183Z,93.54
2019-03-03T09:46:54.164Z,93.13
2019-03-03T09:47:54.198Z,94.15
2019-03-03T09:48:54.146Z,93.95
2019-03-03T09:49:54.132Z,93.54
2019-03-03T09:50:54.120Z,93.74
2019-03-03T09:51:54.112Z,93.54
2019-03-03T09:52:54.127Z,93.54
2019-03-03T09:53:54.097Z,94.05
2019-03-03T09:54:54.074Z,93.44
2019-03-03T09:55:54.070Z,94.26
2019-03-03T09:56:54.057Z,93.95
2019-03-03T09:57:54.076Z,93.13
2019-03-03T09:58:54.036Z,93.85
2019-03-03T09:59:54.021Z,93.02
2019-03-03T10:00:54.017Z,93.33
2019-03-03T10:01:53.998Z,92.82
2019-03-03T10:02:54.010Z,93.44
2019-03-03T10:03:53.981Z,93.54
2019-03-03T10:04:53.966Z,93.19
2019-03-03T10:05:53.971Z,93.39
2019-03-03T10:06:53.949Z,93.08
2019-03-03T10:07:53.958Z,93.08
2019-03-03T10:08:53.933Z,93.19
2019-03-03T10:09:53.910Z,92.78
2019-03-03T10:10:53.896Z,92.68
2019-03-03T10:11:53.896Z,92.47
2019-03-03T10:12:53.899Z,93.08
2019-03-03T10:13:53.869Z,92.06
2019-03-03T10:14:53.857Z,92.78
2019-03-03T10:15:53.843Z,91.75
2019-03-03T10:16:53.836Z,91.75
2019-03-03T10:17:53.843Z,92.57
2019-03-03T10:18:53.811Z,92.12
2019-03-03T10:19:53.806Z,92.53
2019-03-03T10:20:53.788Z,92.12
2019-03-03T10:21:53.776Z,92.22
2019-03-03T10:22:53.792Z,92.83
2019-03-03T10:23:53.755Z,92.32
2019-03-03T10:24:53.744Z,92.43
2019-03-03T10:25:53.731Z,92.74
2019-03-03T10:26:53.723Z,92.22
2019-03-03T10:27:53.748Z,92.43
2019-03-03T10:28:53.699Z,92.06
2019-03-03T10:29:53.687Z,92.12
2019-03-03T10:30:53.686Z,92.74
2019-03-03T10:31:53.669Z,92.22
2019-03-03T10:32:53.689Z,92.63
2019-03-03T10:33:53.646Z,92.22
2019-03-03T10:34:53.634Z,91.61
2019-03-03T10:35:53.622Z,92.02
2019-03-03T10:36:53.612Z,92.22
2019-03-03T10:37:53.624Z,92.59
2019-03-03T10:38:53.594Z,92.22
2019-03-03T10:39:53.578Z,92.28
2019-03-03T10:40:53.570Z,92.28
2019-03-03T10:41:53.562Z,92.02
2019-03-03T10:42:53.573Z,92.27
2019-03-03T10:43:53.536Z,93.15
2019-03-03T10:44:53.522Z,93.35
2019-03-03T10:45:53.511Z,92.74
2019-03-03T10:46:53.501Z,92.12
2019-03-03T10:47:53.516Z,92.36
2019-03-03T10:48:53.483Z,92.83
2019-03-03T10:49:53.456Z,92.32
2019-03-03T10:50:53.465Z,93.35
2019-03-03T10:51:53.442Z,93.04
2019-03-03T10:52:53.460Z,93.25
2019-03-03T10:53:53.431Z,93.29
2019-03-03T10:54:53.410Z,93.04
2019-03-03T10:55:53.403Z,92.63
2019-03-03T10:56:53.388Z,92.43
2019-03-03T10:57:53.527Z,93.15
2019-03-03T10:58:53.367Z,93.04
2019-03-03T10:59:55.105Z,93.55
2019-03-03T11:00:53.343Z,93.04
2019-03-03T11:01:53.353Z,93.25
2019-03-03T11:02:53.319Z,93.04
2019-03-03T11:03:53.334Z,93.15
2019-03-03T11:04:53.305Z,91.91
2019-03-03T11:05:53.288Z,94.48
2019-03-03T11:06:53.280Z,93.35
2019-03-03T11:07:53.266Z,93.15
2019-03-03T11:08:53.284Z,93.25
2019-03-03T11:09:53.250Z,93.76
2019-03-03T11:10:57.624Z,93.25
2019-03-03T11:11:53.224Z,93.15
2019-03-03T11:12:53.211Z,93.86
2019-03-03T11:13:53.349Z,94.33
2019-03-03T11:14:53.190Z,92.38
2019-03-03T11:15:53.180Z,92.49
2019-03-03T11:16:53.168Z,92.79
2019-03-03T11:17:53.146Z,92.32
2019-03-03T11:18:56.043Z,93.41
2019-03-03T11:19:53.135Z,92.90
2019-03-03T11:20:53.124Z,93.20
2019-03-03T11:21:53.119Z,93.10
2019-03-03T11:22:53.101Z,93.00
2019-03-03T11:23:53.115Z,93.00
2019-03-03T11:24:53.081Z,93.10
2019-03-03T11:25:53.070Z,92.83
2019-03-03T11:26:53.053Z,93.04
2019-03-03T11:27:53.046Z,93.10
2019-03-03T11:28:53.063Z,93.62
2019-03-03T11:29:53.024Z,93.00
2019-03-03T11:30:53.013Z,92.83
2019-03-03T11:31:52.998Z,93.04
2019-03-03T11:32:52.989Z,93.45
2019-03-03T11:33:53.006Z,94.37
2019-03-03T11:34:52.966Z,93.45
2019-03-03T11:35:52.955Z,93.86
2019-03-03T11:36:52.951Z,93.55
2019-03-03T11:37:53.014Z,93.15
2019-03-03T11:38:52.944Z,93.55
2019-03-03T11:39:52.913Z,94.27
2019-03-03T11:40:52.900Z,93.96
2019-03-03T11:41:52.885Z,93.45
2019-03-03T11:42:52.877Z,93.04
2019-03-03T11:43:52.887Z,93.15
2019-03-03T11:44:52.854Z,93.71
2019-03-03T11:45:59.980Z,93.41
2019-03-03T11:46:52.863Z,93.35
2019-03-03T11:47:52.818Z,93.30
2019-03-03T11:48:52.837Z,92.59
2019-03-03T11:49:52.836Z,93.15
2019-03-03T11:50:52.932Z,93.76
2019-03-03T11:51:52.783Z,93.41
2019-03-03T11:52:52.763Z,94.02
2019-03-03T11:53:52.794Z,93.41
2019-03-03T11:54:52.787Z,94.23
2019-03-03T11:55:52.889Z,93.82
2019-03-03T11:56:52.723Z,93.96
2019-03-03T11:57:52.699Z,94.17
2019-03-03T11:58:52.714Z,94.07
2019-03-03T11:59:52.691Z,94.17
2019-03-03T12:00:52.713Z,95.09
2019-03-03T12:01:52.685Z,94.58
2019-03-03T12:02:54.188Z,95.20
2019-03-03T12:03:52.672Z,95.29
2019-03-03T12:04:52.622Z,94.99
2019-03-03T12:05:52.619Z,94.48
2019-03-03T12:06:52.607Z,94.27
2019-03-03T12:07:52.597Z,94.58
2019-03-03T12:08:52.724Z,94.99
2019-03-03T12:09:52.877Z,94.78
2019-03-03T12:10:53.273Z,94.99
2019-03-03T12:11:53.771Z,95.09
2019-03-03T12:12:53.767Z,95.29
2019-03-03T12:13:53.228Z,94.93
2019-03-03T12:14:53.299Z,95.03
2019-03-03T12:15:53.284Z,95.34
2019-03-03T12:16:53.272Z,95.20
2019-03-03T12:17:53.273Z,94.99
2019-03-03T12:18:53.769Z,95.09
2019-03-03T12:19:54.693Z,95.40
2019-03-03T12:20:55.271Z,95.05
2019-03-03T12:21:53.279Z,94.84
2019-03-03T12:22:53.272Z,94.43
2019-03-03T12:23:53.403Z,94.43
2019-03-03T12:24:54.774Z,93.51
2019-03-03T12:25:53.770Z,93.88
2019-03-03T12:26:57.271Z,94.08
2019-03-03T12:27:53.273Z,93.16
2019-03-03T12:28:53.272Z,93.47
2019-03-03T12:29:53.275Z,92.71
2019-03-03T12:30:53.288Z,91.99
2019-03-03T12:31:53.307Z,92.25
2019-03-03T12:32:53.273Z,92.36
2019-03-03T12:33:54.284Z,92.05
2019-03-03T12:34:53.025Z,92.46
2019-03-03T12:35:52.463Z,91.54
2019-03-03T12:36:54.112Z,92.46
2019-03-03T12:37:53.276Z,91.91
2019-03-03T12:38:52.311Z,91.60
2019-03-03T12:39:54.276Z,92.07
2019-03-03T12:40:52.277Z,91.46
2019-03-03T12:41:52.774Z,90.58
2019-03-03T12:42:52.914Z,90.58
2019-03-03T12:43:53.375Z,91.60
2019-03-03T12:44:53.277Z,91.70
2019-03-03T12:45:52.299Z,92.32
2019-03-03T12:46:53.321Z,92.21
2019-03-03T12:47:54.787Z,91.70
2019-03-03T12:48:54.279Z,91.39
2019-03-03T12:49:53.289Z,92.32
2019-03-03T12:50:53.284Z,91.33
2019-03-03T12:51:53.788Z,92.30